sensor_id;sensor_type;location;lat;lon;timestamp;P1;durP1;ratioP1;P2;durP2;ratioP2
4577;SDS011;2301;47.354;8.528;2023-08-24T00:01:16;3.70;;;1.90;;
4577;SDS011;2301;47.354;8.528;2023-08-24T00:03:43;4.53;;;2.00;;
4577;SDS011;2301;47.354;8.528;2023-08-24T00:06:11;2.60;;;1.80;;
4577;SDS011;2301;47.354;8.528;2023-08-24T00:08:39;2.77;;;2.03;;
4577;SDS011;2301;47.354;8.528;2023-08-24T00:11:06;2.10;;;1.60;;
4577;SDS011;2301;47.354;8.528;2023-08-24T00:13:33;3.63;;;2.00;;
4577;SDS011;2301;47.354;8.528;2023-08-24T00:16:01;2.57;;;1.90;;
4577;SDS011;2301;47.354;8.528;2023-08-24T00:18:29;3.00;;;1.87;;
4577;SDS011;2301;47.354;8.528;2023-08-24T00:20:56;5.73;;;1.90;;
4577;SDS011;2301;47.354;8.528;2023-08-24T00:23:23;2.70;;;1.90;;
4577;SDS011;2301;47.354;8.528;2023-08-24T00:25:52;3.10;;;2.07;;
4577;SDS011;2301;47.354;8.528;2023-08-24T00:28:19;4.37;;;1.70;;
4577;SDS011;2301;47.354;8.528;2023-08-24T00:30:46;2.90;;;1.60;;
4577;SDS011;2301;47.354;8.528;2023-08-24T00:33:12;6.23;;;2.03;;
4577;SDS011;2301;47.354;8.528;2023-08-24T00:35:39;2.43;;;2.00;;
4577;SDS011;2301;47.354;8.528;2023-08-24T00:38:06;2.07;;;1.87;;
4577;SDS011;2301;47.354;8.528;2023-08-24T00:40:33;4.00;;;2.10;;
4577;SDS011;2301;47.354;8.528;2023-08-24T00:43:02;2.70;;;1.93;;
4577;SDS011;2301;47.354;8.528;2023-08-24T00:45:29;5.83;;;2.00;;
4577;SDS011;2301;47.354;8.528;2023-08-24T00:47:59;4.03;;;2.00;;
4577;SDS011;2301;47.354;8.528;2023-08-24T00:50:26;3.53;;;2.00;;
4577;SDS011;2301;47.354;8.528;2023-08-24T00:52:53;3.43;;;2.07;;
4577;SDS011;2301;47.354;8.528;2023-08-24T00:55:20;2.60;;;2.20;;
4577;SDS011;2301;47.354;8.528;2023-08-24T00:57:48;3.00;;;1.80;;
4577;SDS011;2301;47.354;8.528;2023-08-24T01:00:17;3.30;;;2.00;;
4577;SDS011;2301;47.354;8.528;2023-08-24T01:02:44;4.70;;;2.17;;
4577;SDS011;2301;47.354;8.528;2023-08-24T01:05:11;4.60;;;2.23;;
4577;SDS011;2301;47.354;8.528;2023-08-24T01:07:39;2.43;;;1.80;;
4577;SDS011;2301;47.354;8.528;2023-08-24T01:10:07;3.03;;;2.10;;
4577;SDS011;2301;47.354;8.528;2023-08-24T01:12:38;2.30;;;1.60;;
4577;SDS011;2301;47.354;8.528;2023-08-24T01:15:15;2.50;;;2.00;;
4577;SDS011;2301;47.354;8.528;2023-08-24T01:17:48;2.50;;;1.87;;
4577;SDS011;2301;47.354;8.528;2023-08-24T01:20:17;3.03;;;1.90;;
4577;SDS011;2301;47.354;8.528;2023-08-24T01:22:46;3.93;;;2.10;;
4577;SDS011;2301;47.354;8.528;2023-08-24T01:25:20;3.83;;;1.87;;
4577;SDS011;2301;47.354;8.528;2023-08-24T01:27:57;2.67;;;1.90;;
4577;SDS011;2301;47.354;8.528;2023-08-24T01:30:25;7.30;;;2.20;;
4577;SDS011;2301;47.354;8.528;2023-08-24T01:32:52;2.60;;;1.97;;
4577;SDS011;2301;47.354;8.528;2023-08-24T01:35:19;2.90;;;1.87;;
4577;SDS011;2301;47.354;8.528;2023-08-24T01:37:46;2.43;;;1.80;;
4577;SDS011;2301;47.354;8.528;2023-08-24T01:40:15;3.00;;;2.20;;
4577;SDS011;2301;47.354;8.528;2023-08-24T01:42:51;2.30;;;2.00;;
4577;SDS011;2301;47.354;8.528;2023-08-24T01:45:24;2.57;;;1.80;;
4577;SDS011;2301;47.354;8.528;2023-08-24T01:47:56;2.97;;;1.90;;
4577;SDS011;2301;47.354;8.528;2023-08-24T01:50:28;3.27;;;1.90;;
4577;SDS011;2301;47.354;8.528;2023-08-24T01:52:56;3.37;;;1.90;;
4577;SDS011;2301;47.354;8.528;2023-08-24T01:55:23;3.73;;;2.00;;
4577;SDS011;2301;47.354;8.528;2023-08-24T01:57:50;3.00;;;2.13;;
4577;SDS011;2301;47.354;8.528;2023-08-24T02:00:17;2.30;;;1.80;;
4577;SDS011;2301;47.354;8.528;2023-08-24T02:02:45;2.13;;;1.70;;
4577;SDS011;2301;47.354;8.528;2023-08-24T02:05:13;3.27;;;1.90;;
4577;SDS011;2301;47.354;8.528;2023-08-24T02:07:39;3.50;;;1.83;;
4577;SDS011;2301;47.354;8.528;2023-08-24T02:10:07;3.33;;;2.27;;
4577;SDS011;2301;47.354;8.528;2023-08-24T02:12:34;4.30;;;2.27;;
4577;SDS011;2301;47.354;8.528;2023-08-24T02:15:00;2.83;;;2.23;;
4577;SDS011;2301;47.354;8.528;2023-08-24T02:17:27;4.07;;;1.80;;
4577;SDS011;2301;47.354;8.528;2023-08-24T02:19:56;2.80;;;2.27;;
4577;SDS011;2301;47.354;8.528;2023-08-24T02:22:22;2.50;;;2.00;;
4577;SDS011;2301;47.354;8.528;2023-08-24T02:24:49;6.27;;;1.80;;
4577;SDS011;2301;47.354;8.528;2023-08-24T02:27:17;2.23;;;1.73;;
4577;SDS011;2301;47.354;8.528;2023-08-24T02:29:43;3.37;;;2.20;;
4577;SDS011;2301;47.354;8.528;2023-08-24T02:32:10;2.53;;;1.90;;
4577;SDS011;2301;47.354;8.528;2023-08-24T02:34:37;4.77;;;2.10;;
4577;SDS011;2301;47.354;8.528;2023-08-24T02:37:06;3.17;;;2.00;;
4577;SDS011;2301;47.354;8.528;2023-08-24T02:39:33;2.27;;;2.00;;
4577;SDS011;2301;47.354;8.528;2023-08-24T02:42:00;2.40;;;1.83;;
4577;SDS011;2301;47.354;8.528;2023-08-24T02:44:27;3.07;;;2.13;;
4577;SDS011;2301;47.354;8.528;2023-08-24T02:46:54;2.37;;;2.00;;
4577;SDS011;2301;47.354;8.528;2023-08-24T02:49:21;3.23;;;1.90;;
4577;SDS011;2301;47.354;8.528;2023-08-24T02:51:48;3.13;;;1.90;;
4577;SDS011;2301;47.354;8.528;2023-08-24T02:54:16;2.53;;;2.10;;
4577;SDS011;2301;47.354;8.528;2023-08-24T02:56:43;3.30;;;2.10;;
4577;SDS011;2301;47.354;8.528;2023-08-24T02:59:10;2.27;;;1.90;;
4577;SDS011;2301;47.354;8.528;2023-08-24T03:01:37;2.60;;;2.07;;
4577;SDS011;2301;47.354;8.528;2023-08-24T03:04:06;2.03;;;1.77;;
4577;SDS011;2301;47.354;8.528;2023-08-24T03:06:33;2.40;;;1.90;;
4577;SDS011;2301;47.354;8.528;2023-08-24T03:09:00;4.03;;;2.00;;
4577;SDS011;2301;47.354;8.528;2023-08-24T03:11:30;3.00;;;2.03;;
4577;SDS011;2301;47.354;8.528;2023-08-24T03:13:57;2.83;;;2.03;;
4577;SDS011;2301;47.354;8.528;2023-08-24T03:16:24;2.40;;;1.83;;
4577;SDS011;2301;47.354;8.528;2023-08-24T03:18:52;3.20;;;2.00;;
4577;SDS011;2301;47.354;8.528;2023-08-24T03:21:19;3.90;;;2.40;;
4577;SDS011;2301;47.354;8.528;2023-08-24T03:23:46;2.87;;;1.67;;
4577;SDS011;2301;47.354;8.528;2023-08-24T03:26:13;2.97;;;1.90;;
4577;SDS011;2301;47.354;8.528;2023-08-24T03:28:42;3.30;;;1.90;;
4577;SDS011;2301;47.354;8.528;2023-08-24T03:31:09;4.37;;;2.13;;
4577;SDS011;2301;47.354;8.528;2023-08-24T03:33:35;3.03;;;1.90;;
4577;SDS011;2301;47.354;8.528;2023-08-24T03:36:02;3.00;;;2.07;;
4577;SDS011;2301;47.354;8.528;2023-08-24T03:38:30;2.20;;;1.90;;
4577;SDS011;2301;47.354;8.528;2023-08-24T03:41:00;3.70;;;1.90;;
4577;SDS011;2301;47.354;8.528;2023-08-24T03:43:28;2.60;;;1.90;;
4577;SDS011;2301;47.354;8.528;2023-08-24T03:45:56;2.13;;;1.93;;
4577;SDS011;2301;47.354;8.528;2023-08-24T03:48:23;2.50;;;2.10;;
4577;SDS011;2301;47.354;8.528;2023-08-24T03:50:53;3.83;;;1.87;;
4577;SDS011;2301;47.354;8.528;2023-08-24T03:53:20;2.50;;;2.10;;
4577;SDS011;2301;47.354;8.528;2023-08-24T03:55:47;2.97;;;2.13;;
4577;SDS011;2301;47.354;8.528;2023-08-24T03:58:14;4.30;;;2.13;;
4577;SDS011;2301;47.354;8.528;2023-08-24T04:00:42;2.53;;;2.00;;
4577;SDS011;2301;47.354;8.528;2023-08-24T04:03:10;3.50;;;2.20;;
4577;SDS011;2301;47.354;8.528;2023-08-24T04:05:37;3.27;;;2.20;;
4577;SDS011;2301;47.354;8.528;2023-08-24T04:08:05;2.87;;;2.30;;
4577;SDS011;2301;47.354;8.528;2023-08-24T04:10:32;2.57;;;1.80;;
4577;SDS011;2301;47.354;8.528;2023-08-24T04:12:59;2.40;;;1.90;;
4577;SDS011;2301;47.354;8.528;2023-08-24T04:15:26;2.87;;;2.20;;
4577;SDS011;2301;47.354;8.528;2023-08-24T04:17:53;4.90;;;2.10;;
4577;SDS011;2301;47.354;8.528;2023-08-24T04:20:21;3.60;;;2.30;;
4577;SDS011;2301;47.354;8.528;2023-08-24T04:22:48;2.60;;;2.07;;
4577;SDS011;2301;47.354;8.528;2023-08-24T04:25:15;2.67;;;2.17;;
4577;SDS011;2301;47.354;8.528;2023-08-24T04:27:42;5.20;;;2.00;;
4577;SDS011;2301;47.354;8.528;2023-08-24T04:30:10;2.87;;;2.00;;
4577;SDS011;2301;47.354;8.528;2023-08-24T04:32:40;3.73;;;2.20;;
4577;SDS011;2301;47.354;8.528;2023-08-24T04:35:10;2.77;;;2.30;;
4577;SDS011;2301;47.354;8.528;2023-08-24T04:37:38;3.17;;;2.00;;
4577;SDS011;2301;47.354;8.528;2023-08-24T04:40:06;3.40;;;2.47;;
4577;SDS011;2301;47.354;8.528;2023-08-24T04:42:33;2.50;;;2.27;;
4577;SDS011;2301;47.354;8.528;2023-08-24T04:45:00;2.30;;;2.10;;
4577;SDS011;2301;47.354;8.528;2023-08-24T04:47:27;2.30;;;1.97;;
4577;SDS011;2301;47.354;8.528;2023-08-24T04:49:54;3.80;;;2.53;;
4577;SDS011;2301;47.354;8.528;2023-08-24T04:52:21;3.07;;;2.20;;
4577;SDS011;2301;47.354;8.528;2023-08-24T04:54:49;3.23;;;2.30;;
4577;SDS011;2301;47.354;8.528;2023-08-24T04:57:16;3.07;;;2.40;;
4577;SDS011;2301;47.354;8.528;2023-08-24T04:59:44;2.67;;;2.00;;
4577;SDS011;2301;47.354;8.528;2023-08-24T05:02:11;3.40;;;2.53;;
4577;SDS011;2301;47.354;8.528;2023-08-24T05:04:39;6.63;;;2.50;;
4577;SDS011;2301;47.354;8.528;2023-08-24T05:07:06;2.90;;;2.33;;
4577;SDS011;2301;47.354;8.528;2023-08-24T05:09:32;2.47;;;2.00;;
4577;SDS011;2301;47.354;8.528;2023-08-24T05:12:01;4.30;;;2.17;;
4577;SDS011;2301;47.354;8.528;2023-08-24T05:14:28;4.53;;;2.60;;
4577;SDS011;2301;47.354;8.528;2023-08-24T05:16:54;4.97;;;2.13;;
4577;SDS011;2301;47.354;8.528;2023-08-24T05:19:21;3.07;;;2.30;;
4577;SDS011;2301;47.354;8.528;2023-08-24T05:21:48;3.40;;;2.60;;
4577;SDS011;2301;47.354;8.528;2023-08-24T05:24:15;2.80;;;2.30;;
4577;SDS011;2301;47.354;8.528;2023-08-24T05:26:42;8.23;;;3.13;;
4577;SDS011;2301;47.354;8.528;2023-08-24T05:29:10;4.33;;;2.60;;
4577;SDS011;2301;47.354;8.528;2023-08-24T05:31:37;3.87;;;2.53;;
4577;SDS011;2301;47.354;8.528;2023-08-24T05:34:04;3.83;;;2.40;;
4577;SDS011;2301;47.354;8.528;2023-08-24T05:36:31;4.40;;;2.10;;
4577;SDS011;2301;47.354;8.528;2023-08-24T05:38:58;3.50;;;2.30;;
4577;SDS011;2301;47.354;8.528;2023-08-24T05:41:25;6.13;;;2.40;;
4577;SDS011;2301;47.354;8.528;2023-08-24T05:43:52;2.97;;;2.20;;
4577;SDS011;2301;47.354;8.528;2023-08-24T05:46:20;6.23;;;2.40;;
4577;SDS011;2301;47.354;8.528;2023-08-24T05:48:47;3.87;;;2.20;;
4577;SDS011;2301;47.354;8.528;2023-08-24T05:51:13;3.20;;;2.33;;
4577;SDS011;2301;47.354;8.528;2023-08-24T05:53:40;2.67;;;2.37;;
4577;SDS011;2301;47.354;8.528;2023-08-24T05:56:07;10.13;;;2.63;;
4577;SDS011;2301;47.354;8.528;2023-08-24T05:58:34;4.53;;;2.77;;
4577;SDS011;2301;47.354;8.528;2023-08-24T06:01:01;3.40;;;2.13;;
4577;SDS011;2301;47.354;8.528;2023-08-24T06:03:29;2.83;;;2.33;;
4577;SDS011;2301;47.354;8.528;2023-08-24T06:06:00;3.00;;;2.43;;
4577;SDS011;2301;47.354;8.528;2023-08-24T06:08:29;5.67;;;2.43;;
4577;SDS011;2301;47.354;8.528;2023-08-24T06:10:56;3.40;;;2.40;;
4577;SDS011;2301;47.354;8.528;2023-08-24T06:13:23;10.50;;;2.90;;
4577;SDS011;2301;47.354;8.528;2023-08-24T06:15:50;5.20;;;2.87;;
4577;SDS011;2301;47.354;8.528;2023-08-24T06:18:17;3.97;;;2.77;;
4577;SDS011;2301;47.354;8.528;2023-08-24T06:20:46;7.90;;;3.13;;
4577;SDS011;2301;47.354;8.528;2023-08-24T06:23:14;5.00;;;2.80;;
4577;SDS011;2301;47.354;8.528;2023-08-24T06:25:41;4.27;;;3.00;;
4577;SDS011;2301;47.354;8.528;2023-08-24T06:28:08;3.53;;;2.43;;
4577;SDS011;2301;47.354;8.528;2023-08-24T06:30:36;7.00;;;3.10;;
4577;SDS011;2301;47.354;8.528;2023-08-24T06:33:04;4.20;;;2.87;;
4577;SDS011;2301;47.354;8.528;2023-08-24T06:35:32;4.70;;;2.90;;
4577;SDS011;2301;47.354;8.528;2023-08-24T06:38:00;5.17;;;2.57;;
4577;SDS011;2301;47.354;8.528;2023-08-24T06:40:28;6.37;;;2.53;;
4577;SDS011;2301;47.354;8.528;2023-08-24T06:42:55;3.80;;;2.50;;
4577;SDS011;2301;47.354;8.528;2023-08-24T06:45:22;4.20;;;2.80;;
4577;SDS011;2301;47.354;8.528;2023-08-24T06:47:49;4.10;;;2.97;;
4577;SDS011;2301;47.354;8.528;2023-08-24T06:50:17;3.97;;;2.73;;
4577;SDS011;2301;47.354;8.528;2023-08-24T06:52:45;3.90;;;2.90;;
4577;SDS011;2301;47.354;8.528;2023-08-24T06:55:13;3.50;;;2.70;;
4577;SDS011;2301;47.354;8.528;2023-08-24T06:57:40;4.70;;;2.90;;
4577;SDS011;2301;47.354;8.528;2023-08-24T07:00:07;9.20;;;2.63;;
4577;SDS011;2301;47.354;8.528;2023-08-24T07:02:38;4.33;;;2.80;;
4577;SDS011;2301;47.354;8.528;2023-08-24T07:05:05;3.57;;;2.57;;
4577;SDS011;2301;47.354;8.528;2023-08-24T07:07:35;7.20;;;2.80;;
4577;SDS011;2301;47.354;8.528;2023-08-24T07:10:06;5.83;;;2.57;;
4577;SDS011;2301;47.354;8.528;2023-08-24T07:12:37;4.80;;;3.50;;
4577;SDS011;2301;47.354;8.528;2023-08-24T07:15:09;3.40;;;2.63;;
4577;SDS011;2301;47.354;8.528;2023-08-24T07:17:37;3.20;;;2.53;;
4577;SDS011;2301;47.354;8.528;2023-08-24T07:20:04;2.53;;;2.23;;
4577;SDS011;2301;47.354;8.528;2023-08-24T07:22:33;5.20;;;2.70;;
4577;SDS011;2301;47.354;8.528;2023-08-24T07:25:00;3.07;;;2.63;;
4577;SDS011;2301;47.354;8.528;2023-08-24T07:27:30;4.90;;;2.53;;
4577;SDS011;2301;47.354;8.528;2023-08-24T07:29:58;4.07;;;2.60;;
4577;SDS011;2301;47.354;8.528;2023-08-24T07:32:26;3.67;;;2.30;;
4577;SDS011;2301;47.354;8.528;2023-08-24T07:34:53;7.37;;;3.03;;
4577;SDS011;2301;47.354;8.528;2023-08-24T07:37:22;6.77;;;2.70;;
4577;SDS011;2301;47.354;8.528;2023-08-24T07:39:49;4.47;;;2.80;;
4577;SDS011;2301;47.354;8.528;2023-08-24T07:42:16;9.60;;;3.20;;
4577;SDS011;2301;47.354;8.528;2023-08-24T07:44:46;4.10;;;2.73;;
4577;SDS011;2301;47.354;8.528;2023-08-24T07:47:14;5.70;;;2.80;;
4577;SDS011;2301;47.354;8.528;2023-08-24T07:49:41;6.37;;;2.63;;
4577;SDS011;2301;47.354;8.528;2023-08-24T07:52:09;4.43;;;2.67;;
4577;SDS011;2301;47.354;8.528;2023-08-24T07:54:37;3.80;;;2.80;;
4577;SDS011;2301;47.354;8.528;2023-08-24T07:57:04;4.70;;;2.63;;
4577;SDS011;2301;47.354;8.528;2023-08-24T07:59:31;4.47;;;2.30;;
4577;SDS011;2301;47.354;8.528;2023-08-24T08:01:58;8.23;;;2.80;;
4577;SDS011;2301;47.354;8.528;2023-08-24T08:04:26;3.37;;;2.57;;
4577;SDS011;2301;47.354;8.528;2023-08-24T08:06:53;4.30;;;2.83;;
4577;SDS011;2301;47.354;8.528;2023-08-24T08:09:27;5.60;;;2.70;;
4577;SDS011;2301;47.354;8.528;2023-08-24T08:11:55;4.13;;;2.33;;
4577;SDS011;2301;47.354;8.528;2023-08-24T08:14:22;4.53;;;2.63;;
4577;SDS011;2301;47.354;8.528;2023-08-24T08:16:49;6.60;;;2.50;;
4577;SDS011;2301;47.354;8.528;2023-08-24T08:19:16;12.60;;;3.20;;
4577;SDS011;2301;47.354;8.528;2023-08-24T08:21:46;4.20;;;2.70;;
4577;SDS011;2301;47.354;8.528;2023-08-24T08:24:13;6.33;;;2.53;;
4577;SDS011;2301;47.354;8.528;2023-08-24T08:26:40;4.90;;;2.80;;
4577;SDS011;2301;47.354;8.528;2023-08-24T08:29:06;7.73;;;2.93;;
4577;SDS011;2301;47.354;8.528;2023-08-24T08:31:33;9.77;;;3.10;;
4577;SDS011;2301;47.354;8.528;2023-08-24T08:34:00;4.70;;;2.37;;
4577;SDS011;2301;47.354;8.528;2023-08-24T08:36:50;7.13;;;2.63;;
4577;SDS011;2301;47.354;8.528;2023-08-24T08:39:17;6.60;;;2.83;;
4577;SDS011;2301;47.354;8.528;2023-08-24T08:41:44;6.47;;;2.80;;
4577;SDS011;2301;47.354;8.528;2023-08-24T08:44:13;6.13;;;2.80;;
4577;SDS011;2301;47.354;8.528;2023-08-24T08:46:41;6.00;;;2.83;;
4577;SDS011;2301;47.354;8.528;2023-08-24T08:49:09;3.10;;;2.50;;
4577;SDS011;2301;47.354;8.528;2023-08-24T08:51:40;4.40;;;2.70;;
4577;SDS011;2301;47.354;8.528;2023-08-24T08:54:09;3.27;;;2.43;;
4577;SDS011;2301;47.354;8.528;2023-08-24T08:56:36;3.60;;;2.40;;
4577;SDS011;2301;47.354;8.528;2023-08-24T08:59:03;2.40;;;2.17;;
4577;SDS011;2301;47.354;8.528;2023-08-24T09:01:34;5.97;;;2.77;;
4577;SDS011;2301;47.354;8.528;2023-08-24T09:04:03;4.87;;;3.00;;
4577;SDS011;2301;47.354;8.528;2023-08-24T09:06:32;4.90;;;2.40;;
4577;SDS011;2301;47.354;8.528;2023-08-24T09:11:41;3.70;;;2.50;;
4577;SDS011;2301;47.354;8.528;2023-08-24T09:14:12;4.77;;;2.90;;
4577;SDS011;2301;47.354;8.528;2023-08-24T09:16:39;3.57;;;2.63;;
4577;SDS011;2301;47.354;8.528;2023-08-24T09:19:10;4.07;;;2.33;;
4577;SDS011;2301;47.354;8.528;2023-08-24T09:21:38;2.80;;;2.30;;
4577;SDS011;2301;47.354;8.528;2023-08-24T09:24:07;4.50;;;3.07;;
4577;SDS011;2301;47.354;8.528;2023-08-24T09:26:35;7.10;;;2.77;;
4577;SDS011;2301;47.354;8.528;2023-08-24T09:29:12;5.00;;;2.47;;
4577;SDS011;2301;47.354;8.528;2023-08-24T09:31:40;6.33;;;2.60;;
4577;SDS011;2301;47.354;8.528;2023-08-24T09:36:52;5.37;;;2.80;;
4577;SDS011;2301;47.354;8.528;2023-08-24T09:39:19;4.30;;;2.40;;
4577;SDS011;2301;47.354;8.528;2023-08-24T09:41:48;3.93;;;2.10;;
4577;SDS011;2301;47.354;8.528;2023-08-24T09:44:17;5.17;;;2.70;;
4577;SDS011;2301;47.354;8.528;2023-08-24T09:46:45;5.50;;;2.83;;
4577;SDS011;2301;47.354;8.528;2023-08-24T09:49:14;3.90;;;2.70;;
4577;SDS011;2301;47.354;8.528;2023-08-24T09:51:41;3.77;;;2.50;;
4577;SDS011;2301;47.354;8.528;2023-08-24T09:54:10;8.50;;;2.60;;
4577;SDS011;2301;47.354;8.528;2023-08-24T09:56:39;5.10;;;2.70;;
4577;SDS011;2301;47.354;8.528;2023-08-24T09:59:10;4.93;;;2.90;;
4577;SDS011;2301;47.354;8.528;2023-08-24T10:01:42;4.60;;;2.73;;
4577;SDS011;2301;47.354;8.528;2023-08-24T10:04:12;3.33;;;2.40;;
4577;SDS011;2301;47.354;8.528;2023-08-24T10:06:44;7.23;;;2.40;;
4577;SDS011;2301;47.354;8.528;2023-08-24T10:09:18;3.93;;;2.30;;
4577;SDS011;2301;47.354;8.528;2023-08-24T10:12:00;3.57;;;2.63;;
4577;SDS011;2301;47.354;8.528;2023-08-24T10:14:31;5.00;;;2.30;;
4577;SDS011;2301;47.354;8.528;2023-08-24T10:17:04;2.93;;;2.40;;
4577;SDS011;2301;47.354;8.528;2023-08-24T10:19:34;5.23;;;2.20;;
4577;SDS011;2301;47.354;8.528;2023-08-24T10:22:04;5.23;;;2.43;;
4577;SDS011;2301;47.354;8.528;2023-08-24T10:24:33;5.87;;;2.60;;
4577;SDS011;2301;47.354;8.528;2023-08-24T10:27:02;3.03;;;2.30;;
4577;SDS011;2301;47.354;8.528;2023-08-24T10:29:29;3.10;;;2.43;;
4577;SDS011;2301;47.354;8.528;2023-08-24T10:31:56;3.90;;;2.43;;
4577;SDS011;2301;47.354;8.528;2023-08-24T10:34:25;5.53;;;2.20;;
4577;SDS011;2301;47.354;8.528;2023-08-24T10:36:52;4.50;;;2.13;;
4577;SDS011;2301;47.354;8.528;2023-08-24T10:39:26;2.47;;;2.20;;
4577;SDS011;2301;47.354;8.528;2023-08-24T10:41:54;3.33;;;2.27;;
4577;SDS011;2301;47.354;8.528;2023-08-24T10:44:21;3.13;;;2.60;;
4577;SDS011;2301;47.354;8.528;2023-08-24T10:49:44;3.87;;;2.50;;
4577;SDS011;2301;47.354;8.528;2023-08-24T10:52:23;2.77;;;2.13;;
4577;SDS011;2301;47.354;8.528;2023-08-24T10:54:52;3.40;;;2.47;;
4577;SDS011;2301;47.354;8.528;2023-08-24T10:57:20;6.00;;;2.50;;
4577;SDS011;2301;47.354;8.528;2023-08-24T11:00:03;5.80;;;2.47;;
4577;SDS011;2301;47.354;8.528;2023-08-24T11:02:40;4.93;;;2.40;;
4577;SDS011;2301;47.354;8.528;2023-08-24T11:05:17;5.23;;;2.40;;
4577;SDS011;2301;47.354;8.528;2023-08-24T11:07:47;5.03;;;2.60;;
4577;SDS011;2301;47.354;8.528;2023-08-24T11:10:15;7.83;;;2.37;;
4577;SDS011;2301;47.354;8.528;2023-08-24T11:15:33;4.93;;;2.67;;
4577;SDS011;2301;47.354;8.528;2023-08-24T11:18:13;2.60;;;1.97;;
4577;SDS011;2301;47.354;8.528;2023-08-24T11:20:50;11.87;;;2.60;;
4577;SDS011;2301;47.354;8.528;2023-08-24T11:23:18;5.47;;;2.33;;
4577;SDS011;2301;47.354;8.528;2023-08-24T11:25:46;3.87;;;2.80;;
4577;SDS011;2301;47.354;8.528;2023-08-24T11:28:16;7.17;;;2.60;;
4577;SDS011;2301;47.354;8.528;2023-08-24T11:30:45;4.63;;;2.43;;
4577;SDS011;2301;47.354;8.528;2023-08-24T11:33:13;7.17;;;2.40;;
4577;SDS011;2301;47.354;8.528;2023-08-24T11:35:41;5.87;;;2.57;;
4577;SDS011;2301;47.354;8.528;2023-08-24T11:38:11;7.40;;;2.57;;
4577;SDS011;2301;47.354;8.528;2023-08-24T11:40:38;6.80;;;2.83;;
4577;SDS011;2301;47.354;8.528;2023-08-24T11:43:05;4.70;;;2.50;;
4577;SDS011;2301;47.354;8.528;2023-08-24T11:45:32;4.20;;;2.30;;
4577;SDS011;2301;47.354;8.528;2023-08-24T11:48:01;6.97;;;2.60;;
4577;SDS011;2301;47.354;8.528;2023-08-24T11:50:29;6.10;;;2.60;;
4577;SDS011;2301;47.354;8.528;2023-08-24T11:52:56;4.00;;;2.27;;
4577;SDS011;2301;47.354;8.528;2023-08-24T11:55:26;4.87;;;2.50;;
4577;SDS011;2301;47.354;8.528;2023-08-24T11:57:53;3.53;;;2.60;;
4577;SDS011;2301;47.354;8.528;2023-08-24T12:00:20;3.17;;;2.40;;
4577;SDS011;2301;47.354;8.528;2023-08-24T12:02:48;4.03;;;2.20;;
4577;SDS011;2301;47.354;8.528;2023-08-24T12:05:19;5.80;;;2.67;;
4577;SDS011;2301;47.354;8.528;2023-08-24T12:07:48;8.33;;;2.50;;
4577;SDS011;2301;47.354;8.528;2023-08-24T12:10:15;8.93;;;2.73;;
4577;SDS011;2301;47.354;8.528;2023-08-24T12:12:43;6.47;;;3.33;;
4577;SDS011;2301;47.354;8.528;2023-08-24T12:15:17;4.83;;;2.60;;
4577;SDS011;2301;47.354;8.528;2023-08-24T12:17:47;4.80;;;2.57;;
4577;SDS011;2301;47.354;8.528;2023-08-24T12:20:18;6.27;;;3.00;;
4577;SDS011;2301;47.354;8.528;2023-08-24T12:22:50;5.13;;;2.33;;
4577;SDS011;2301;47.354;8.528;2023-08-24T12:25:23;5.40;;;2.40;;
4577;SDS011;2301;47.354;8.528;2023-08-24T12:27:52;6.90;;;2.40;;
4577;SDS011;2301;47.354;8.528;2023-08-24T12:30:42;6.33;;;2.30;;
4577;SDS011;2301;47.354;8.528;2023-08-24T12:33:20;8.87;;;2.50;;
4577;SDS011;2301;47.354;8.528;2023-08-24T12:35:48;3.87;;;2.67;;
4577;SDS011;2301;47.354;8.528;2023-08-24T12:38:15;5.30;;;2.63;;
4577;SDS011;2301;47.354;8.528;2023-08-24T12:40:41;4.17;;;2.30;;
4577;SDS011;2301;47.354;8.528;2023-08-24T12:43:10;7.33;;;2.63;;
4577;SDS011;2301;47.354;8.528;2023-08-24T12:45:37;3.40;;;2.57;;
4577;SDS011;2301;47.354;8.528;2023-08-24T12:48:04;4.67;;;2.47;;
4577;SDS011;2301;47.354;8.528;2023-08-24T12:50:32;10.77;;;3.07;;
4577;SDS011;2301;47.354;8.528;2023-08-24T12:52:59;3.93;;;2.40;;
4577;SDS011;2301;47.354;8.528;2023-08-24T12:55:26;3.03;;;2.10;;
4577;SDS011;2301;47.354;8.528;2023-08-24T12:57:53;10.63;;;2.77;;
4577;SDS011;2301;47.354;8.528;2023-08-24T13:00:21;4.37;;;2.20;;
4577;SDS011;2301;47.354;8.528;2023-08-24T13:02:48;6.60;;;2.90;;
4577;SDS011;2301;47.354;8.528;2023-08-24T13:05:16;5.33;;;2.47;;
4577;SDS011;2301;47.354;8.528;2023-08-24T13:07:43;8.17;;;3.00;;
4577;SDS011;2301;47.354;8.528;2023-08-24T13:10:10;6.00;;;2.20;;
4577;SDS011;2301;47.354;8.528;2023-08-24T13:12:37;10.10;;;2.57;;
4577;SDS011;2301;47.354;8.528;2023-08-24T13:15:04;5.17;;;2.70;;
4577;SDS011;2301;47.354;8.528;2023-08-24T13:17:33;5.20;;;2.73;;
4577;SDS011;2301;47.354;8.528;2023-08-24T13:20:01;7.40;;;2.60;;
4577;SDS011;2301;47.354;8.528;2023-08-24T13:22:29;6.40;;;3.07;;
4577;SDS011;2301;47.354;8.528;2023-08-24T13:24:55;3.80;;;2.10;;
4577;SDS011;2301;47.354;8.528;2023-08-24T13:27:23;5.77;;;2.53;;
4577;SDS011;2301;47.354;8.528;2023-08-24T13:29:50;6.80;;;2.90;;
4577;SDS011;2301;47.354;8.528;2023-08-24T13:32:17;8.97;;;2.60;;
4577;SDS011;2301;47.354;8.528;2023-08-24T13:34:46;6.60;;;2.73;;
4577;SDS011;2301;47.354;8.528;2023-08-24T13:37:13;5.57;;;2.20;;
4577;SDS011;2301;47.354;8.528;2023-08-24T13:39:40;6.03;;;2.53;;
4577;SDS011;2301;47.354;8.528;2023-08-24T13:42:06;5.40;;;2.83;;
4577;SDS011;2301;47.354;8.528;2023-08-24T13:44:33;6.50;;;2.50;;
4577;SDS011;2301;47.354;8.528;2023-08-24T13:47:00;5.80;;;2.43;;
4577;SDS011;2301;47.354;8.528;2023-08-24T13:49:27;6.63;;;2.60;;
4577;SDS011;2301;47.354;8.528;2023-08-24T13:51:56;14.93;;;2.83;;
4577;SDS011;2301;47.354;8.528;2023-08-24T13:54:22;7.00;;;2.50;;
4577;SDS011;2301;47.354;8.528;2023-08-24T13:56:51;6.53;;;2.60;;
4577;SDS011;2301;47.354;8.528;2023-08-24T13:59:19;8.33;;;2.70;;
4577;SDS011;2301;47.354;8.528;2023-08-24T14:01:46;5.73;;;2.60;;
4577;SDS011;2301;47.354;8.528;2023-08-24T14:04:13;8.67;;;2.90;;
4577;SDS011;2301;47.354;8.528;2023-08-24T14:06:40;6.30;;;2.87;;
4577;SDS011;2301;47.354;8.528;2023-08-24T14:09:08;10.70;;;2.90;;
4577;SDS011;2301;47.354;8.528;2023-08-24T14:11:35;6.73;;;2.60;;
4577;SDS011;2301;47.354;8.528;2023-08-24T14:14:02;9.13;;;3.10;;
4577;SDS011;2301;47.354;8.528;2023-08-24T14:16:29;5.63;;;2.43;;
4577;SDS011;2301;47.354;8.528;2023-08-24T14:18:56;5.00;;;2.60;;
4577;SDS011;2301;47.354;8.528;2023-08-24T14:21:23;5.63;;;2.93;;
4577;SDS011;2301;47.354;8.528;2023-08-24T14:23:50;7.60;;;3.00;;
4577;SDS011;2301;47.354;8.528;2023-08-24T14:26:20;7.60;;;2.97;;
4577;SDS011;2301;47.354;8.528;2023-08-24T14:28:47;6.93;;;2.80;;
4577;SDS011;2301;47.354;8.528;2023-08-24T14:31:15;6.10;;;2.97;;
4577;SDS011;2301;47.354;8.528;2023-08-24T14:33:42;14.03;;;3.13;;
4577;SDS011;2301;47.354;8.528;2023-08-24T14:36:13;8.13;;;2.90;;
4577;SDS011;2301;47.354;8.528;2023-08-24T14:38:42;7.10;;;3.07;;
4577;SDS011;2301;47.354;8.528;2023-08-24T14:41:10;7.73;;;2.80;;
4577;SDS011;2301;47.354;8.528;2023-08-24T14:43:39;4.50;;;3.20;;
4577;SDS011;2301;47.354;8.528;2023-08-24T14:46:06;10.57;;;2.50;;
4577;SDS011;2301;47.354;8.528;2023-08-24T14:48:34;6.37;;;2.90;;
4577;SDS011;2301;47.354;8.528;2023-08-24T14:51:01;10.33;;;2.90;;
4577;SDS011;2301;47.354;8.528;2023-08-24T14:53:28;9.83;;;2.90;;
4577;SDS011;2301;47.354;8.528;2023-08-24T14:55:55;5.57;;;2.87;;
4577;SDS011;2301;47.354;8.528;2023-08-24T14:58:23;9.63;;;3.37;;
4577;SDS011;2301;47.354;8.528;2023-08-24T15:00:52;6.83;;;2.53;;
4577;SDS011;2301;47.354;8.528;2023-08-24T15:03:20;10.87;;;3.00;;
4577;SDS011;2301;47.354;8.528;2023-08-24T15:05:55;11.63;;;3.37;;
4577;SDS011;2301;47.354;8.528;2023-08-24T15:08:23;9.00;;;3.10;;
4577;SDS011;2301;47.354;8.528;2023-08-24T15:10:50;9.80;;;3.00;;
4577;SDS011;2301;47.354;8.528;2023-08-24T15:13:19;7.10;;;2.50;;
4577;SDS011;2301;47.354;8.528;2023-08-24T15:15:46;10.63;;;3.40;;
4577;SDS011;2301;47.354;8.528;2023-08-24T15:18:16;12.30;;;3.50;;
4577;SDS011;2301;47.354;8.528;2023-08-24T15:20:45;7.23;;;2.90;;
4577;SDS011;2301;47.354;8.528;2023-08-24T15:23:22;5.90;;;2.70;;
4577;SDS011;2301;47.354;8.528;2023-08-24T15:25:54;8.80;;;3.10;;
4577;SDS011;2301;47.354;8.528;2023-08-24T15:28:24;8.23;;;2.73;;
4577;SDS011;2301;47.354;8.528;2023-08-24T15:31:02;5.40;;;2.57;;
4577;SDS011;2301;47.354;8.528;2023-08-24T15:33:31;8.50;;;2.40;;